createdAt,value
2018-06-21T00:01:56.740Z,21.50
2018-06-21T00:07:00.354Z,21.30
2018-06-21T00:12:03.040Z,21.30
2018-06-21T00:17:05.678Z,21.30
2018-06-21T00:22:08.321Z,21.20
2018-06-21T00:27:12.145Z,21.10
2018-06-21T00:32:14.716Z,21.10
2018-06-21T00:37:17.287Z,21.00
2018-06-21T00:42:19.905Z,20.90
2018-06-21T00:47:22.560Z,20.90
2018-06-21T00:52:25.146Z,20.80
2018-06-21T00:57:27.811Z,20.70
2018-06-21T01:02:30.397Z,20.70
2018-06-21T01:07:33.281Z,20.60
2018-06-21T01:12:35.945Z,20.60
2018-06-21T01:17:38.729Z,20.50
2018-06-21T01:22:42.048Z,20.40
2018-06-21T01:27:45.463Z,20.40
2018-06-21T01:32:48.080Z,20.30
2018-06-21T01:37:51.174Z,20.20
2018-06-21T01:42:54.080Z,20.20
2018-06-21T01:47:56.651Z,20.10
2018-06-21T01:52:59.604Z,20.00
2018-06-21T01:58:02.660Z,19.90
2018-06-21T02:03:05.331Z,19.90
2018-06-21T02:08:07.961Z,19.90
2018-06-21T02:13:11.333Z,19.80
2018-06-21T02:18:14.704Z,19.70
2018-06-21T02:23:17.617Z,19.70
2018-06-21T02:28:20.222Z,19.70
2018-06-21T02:33:22.807Z,19.60
2018-06-21T02:38:25.392Z,19.50
2018-06-21T02:43:28.173Z,19.50
2018-06-21T02:48:30.771Z,19.40
2018-06-21T02:53:33.434Z,19.40
2018-06-21T02:58:36.783Z,19.30
2018-06-21T03:03:39.686Z,19.20
2018-06-21T03:08:42.346Z,19.20
2018-06-21T03:13:45.218Z,19.20
2018-06-21T03:18:48.655Z,19.10
2018-06-21T03:23:51.304Z,19.00
2018-06-21T03:28:53.948Z,19.10
2018-06-21T03:33:56.646Z,19.00
2018-06-21T03:39:00.090Z,19.00
2018-06-21T03:44:02.744Z,18.90
2018-06-21T03:49:05.605Z,18.90
2018-06-21T03:54:08.165Z,18.80
2018-06-21T03:59:10.834Z,18.80
2018-06-21T04:04:14.159Z,18.70
2018-06-21T04:09:16.714Z,18.70
2018-06-21T04:14:19.280Z,18.70
2018-06-21T04:19:21.920Z,18.70
2018-06-21T04:24:24.497Z,18.70
2018-06-21T04:29:27.080Z,18.70
2018-06-21T04:34:29.650Z,18.70
2018-06-21T04:39:32.257Z,18.80
2018-06-21T04:44:35.166Z,18.80
2018-06-21T04:49:37.775Z,18.90
2018-06-21T04:54:40.709Z,18.90
2018-06-21T04:59:43.496Z,19.00
2018-06-21T05:04:46.194Z,19.10
2018-06-21T05:09:50.324Z,19.20
2018-06-21T05:14:52.963Z,19.40
2018-06-21T05:19:59.064Z,19.60
2018-06-21T05:25:03.303Z,19.80
2018-06-21T05:30:05.884Z,19.90
2018-06-21T05:35:08.710Z,20.20
2018-06-21T05:40:11.337Z,20.40
2018-06-21T05:45:14.340Z,20.70
2018-06-21T05:50:17.258Z,21.00
2018-06-21T05:55:19.869Z,21.30
2018-06-21T06:00:22.812Z,21.60
2018-06-21T06:05:25.469Z,21.90
2018-06-21T06:10:29.167Z,22.50
2018-06-21T06:15:32.884Z,22.80
2018-06-21T06:20:35.711Z,22.80
2018-06-21T06:25:38.592Z,23.10
2018-06-21T06:30:42.017Z,23.40
2018-06-21T06:35:47.492Z,23.90
2018-06-21T06:40:51.791Z,24.10
2018-06-21T06:45:54.768Z,24.10
2018-06-21T06:50:58.467Z,24.30
2018-06-21T06:56:01.274Z,24.50
2018-06-21T07:01:04.405Z,24.70
2018-06-21T07:06:07.175Z,25.00
2018-06-21T07:11:10.241Z,25.20
2018-06-21T07:16:13.058Z,25.60
2018-06-21T07:21:16.636Z,25.90
2018-06-21T07:26:20.434Z,26.20
2018-06-21T07:31:27.923Z,26.50
2018-06-21T07:36:31.025Z,26.90
2018-06-21T07:41:34.005Z,27.30
2018-06-21T07:46:37.145Z,27.60
2018-06-21T07:51:39.973Z,27.90
2018-06-21T07:56:42.911Z,28.00
2018-06-21T08:01:46.384Z,28.10
2018-06-21T08:06:49.322Z,28.00
2018-06-21T08:11:53.122Z,28.10
2018-06-21T08:16:57.262Z,28.40
2018-06-21T08:22:03.003Z,28.30
2018-06-21T08:27:06.003Z,28.70
2018-06-21T08:32:09.438Z,29.00
2018-06-21T08:37:12.174Z,29.30
2018-06-21T08:42:20.646Z,29.60
2018-06-21T08:47:39.480Z,29.70
2018-06-21T09:18:16.097Z,30.30
2018-06-21T09:23:18.635Z,30.50
2018-06-21T09:28:21.156Z,30.60
2018-06-21T09:33:23.678Z,30.70
2018-06-21T09:38:26.280Z,30.70
2018-06-21T09:43:50.293Z,30.80
2018-06-21T09:48:46.871Z,30.90
2018-06-21T09:53:49.412Z,31.10
2018-06-21T09:58:51.939Z,31.30
2018-06-21T10:03:54.467Z,31.40
2018-06-21T10:08:57.000Z,31.60
2018-06-21T10:13:59.531Z,31.70
2018-06-21T10:19:02.079Z,31.90
2018-06-21T10:24:05.388Z,32.20
2018-06-21T10:29:07.924Z,32.20
2018-06-21T10:34:10.451Z,32.40
2018-06-21T10:39:13.025Z,32.50
2018-06-21T10:44:15.503Z,32.60
2018-06-21T10:49:18.034Z,32.90
2018-06-21T10:54:20.578Z,33.00
2018-06-21T10:59:23.144Z,33.00
2018-06-21T11:04:25.698Z,33.10
2018-06-21T11:09:28.216Z,33.30
2018-06-21T11:14:31.684Z,33.40
2018-06-21T11:19:34.220Z,33.40
2018-06-21T11:24:36.747Z,33.40
2018-06-21T11:29:39.275Z,33.40
2018-06-21T11:34:41.802Z,33.40
2018-06-21T11:39:44.412Z,33.40
2018-06-21T11:44:46.952Z,33.30
2018-06-21T11:49:49.558Z,33.40
2018-06-21T11:54:52.400Z,33.50
2018-06-21T11:59:54.929Z,33.50
2018-06-21T12:04:57.447Z,33.40
2018-06-21T12:09:59.969Z,33.40
2018-06-21T12:15:02.502Z,33.30
2018-06-21T12:20:05.826Z,33.10
2018-06-21T12:25:08.356Z,33.00
2018-06-21T12:30:10.906Z,33.00
2018-06-21T12:35:13.471Z,32.90
2018-06-21T12:40:16.021Z,32.80
2018-06-21T12:45:20.219Z,32.60
2018-06-21T12:50:22.764Z,32.50
2018-06-21T12:55:25.281Z,32.40
2018-06-21T13:00:27.813Z,32.30
2018-06-21T13:05:30.446Z,32.20
2018-06-21T13:10:55.537Z,32.00
2018-06-21T13:15:58.076Z,31.90
2018-06-21T13:21:00.607Z,31.70
2018-06-21T13:26:03.154Z,31.50
2018-06-21T13:31:05.705Z,31.40
2018-06-21T13:36:08.268Z,31.30
2018-06-21T13:41:10.816Z,31.20
2018-06-21T13:46:13.348Z,31.30
2018-06-21T13:51:15.881Z,31.20
2018-06-21T13:56:18.437Z,31.20
2018-06-21T14:01:20.988Z,31.10
2018-06-21T14:06:23.537Z,31.20
2018-06-21T14:11:26.072Z,31.20
2018-06-21T14:16:28.594Z,31.10
2018-06-21T14:21:31.132Z,31.00
2018-06-21T14:26:33.681Z,31.00
2018-06-21T14:31:36.210Z,30.90
2018-06-21T14:36:38.855Z,30.80
2018-06-21T14:41:41.396Z,30.70
2018-06-21T14:46:44.395Z,30.60
2018-06-21T14:51:49.375Z,30.50
2018-06-21T14:56:52.495Z,30.50
2018-06-21T15:01:55.621Z,30.40
2018-06-21T15:06:59.142Z,30.30
2018-06-21T15:12:02.171Z,30.20
2018-06-21T15:17:05.739Z,30.20
2018-06-21T15:22:08.308Z,30.00
2018-06-21T15:27:10.877Z,29.90
2018-06-21T15:32:13.524Z,29.70
2018-06-21T15:37:16.071Z,29.60
2018-06-21T15:42:18.605Z,29.50
2018-06-21T15:47:21.126Z,29.40
2018-06-21T15:52:23.663Z,29.30
2018-06-21T15:57:26.234Z,29.30
2018-06-21T16:02:28.748Z,29.30
2018-06-21T16:07:31.272Z,29.10
2018-06-21T16:12:35.546Z,29.00
2018-06-21T16:17:38.854Z,28.80
2018-06-21T16:22:42.165Z,28.70
2018-06-21T16:27:45.496Z,28.70
2018-06-21T16:32:48.787Z,28.60
2018-06-21T16:37:51.347Z,28.60
2018-06-21T16:42:53.939Z,28.50
2018-06-21T16:47:56.472Z,28.50
2018-06-21T16:52:59.028Z,28.50
2018-06-21T16:58:01.581Z,28.40
2018-06-21T17:03:04.895Z,28.30
2018-06-21T17:08:07.433Z,28.10
2018-06-21T17:13:10.004Z,27.90
2018-06-21T17:18:12.547Z,27.90
2018-06-21T17:23:15.369Z,27.70
2018-06-21T17:28:17.904Z,27.50
2018-06-21T17:33:20.444Z,27.40
2018-06-21T17:38:23.021Z,27.30
2018-06-21T17:43:30.189Z,27.20
2018-06-21T17:48:33.669Z,26.80
2018-06-21T17:53:42.538Z,26.80
2018-06-21T17:58:45.237Z,26.70
2018-06-21T18:03:47.766Z,26.50
2018-06-21T18:08:50.336Z,26.40
2018-06-21T18:13:52.895Z,26.20
2018-06-21T18:18:55.421Z,26.10
2018-06-21T18:23:57.967Z,25.90
2018-06-21T18:29:00.995Z,25.80
2018-06-21T18:34:03.611Z,25.60
2018-06-21T18:39:06.135Z,25.50
2018-06-21T18:44:08.676Z,25.40
2018-06-21T18:49:11.242Z,25.20
2018-06-21T18:54:13.826Z,25.10
2018-06-21T18:59:16.373Z,25.00
2018-06-21T19:04:19.070Z,24.80
2018-06-21T19:09:39.375Z,24.70
2018-06-21T19:14:42.339Z,24.60
2018-06-21T19:19:44.897Z,24.40
2018-06-21T19:24:47.433Z,24.30
2018-06-21T19:29:50.739Z,24.00
2018-06-21T19:34:54.043Z,23.90
2018-06-21T19:39:56.578Z,23.80
2018-06-21T19:44:59.121Z,23.70
2018-06-21T19:50:01.686Z,23.60
2018-06-21T19:55:04.221Z,23.50
2018-06-21T20:00:06.857Z,23.40
2018-06-21T20:05:09.394Z,23.20
2018-06-21T20:10:11.925Z,23.10
2018-06-21T20:15:14.453Z,23.00
2018-06-21T20:20:16.983Z,22.80
2018-06-21T20:25:19.504Z,22.70
2018-06-21T20:30:22.041Z,22.60
2018-06-21T20:35:24.564Z,22.50
2018-06-21T20:40:27.097Z,22.40
2018-06-21T20:45:29.622Z,22.40
2018-06-21T20:50:32.197Z,22.30
2018-06-21T20:55:35.468Z,22.10
2018-06-21T21:00:38.005Z,22.10
2018-06-21T21:05:40.539Z,22.10
2018-06-21T21:10:43.328Z,22.00
2018-06-21T21:15:45.869Z,21.90
2018-06-21T21:20:49.167Z,21.70
2018-06-21T21:25:51.712Z,21.70
2018-06-21T21:30:54.251Z,21.70
2018-06-21T21:35:56.795Z,21.60
2018-06-21T21:40:59.323Z,21.50
2018-06-21T21:46:01.856Z,21.40
2018-06-21T21:51:04.388Z,21.40
2018-06-21T21:56:07.676Z,21.20
2018-06-21T22:01:10.221Z,21.20
2018-06-21T22:06:12.762Z,21.10
2018-06-21T22:11:15.325Z,21.10
2018-06-21T22:16:17.856Z,21.00
2018-06-21T22:21:20.399Z,20.80
2018-06-21T22:26:22.944Z,20.70
2018-06-21T22:31:25.507Z,20.70
2018-06-21T22:36:28.033Z,20.60
2018-06-21T22:41:30.569Z,20.50
2018-06-21T22:46:33.113Z,20.40
2018-06-21T22:51:35.694Z,20.30
2018-06-21T22:56:38.215Z,20.20
2018-06-21T23:01:40.748Z,20.10
2018-06-21T23:06:43.288Z,20.00
2018-06-21T23:11:46.586Z,19.80
2018-06-21T23:16:49.117Z,19.80
2018-06-21T23:21:51.632Z,19.70
2018-06-21T23:26:54.285Z,19.60
2018-06-21T23:31:56.720Z,19.50
2018-06-21T23:36:59.248Z,19.40
2018-06-21T23:42:01.803Z,19.30
2018-06-21T23:47:04.328Z,19.20
2018-06-21T23:52:07.000Z,19.10
2018-06-21T23:57:09.536Z,19.00
